Time;durP1;ratioP1;P1;durP2;ratioP2;P2;SDS_P1;SDS_P2;PMS_P1;PMS_P2;Temp;Humidity;BMP_temperature;BMP_pressure;BME280_temperature;BME280_humidity;BME280_pressure;Samples;Min_cycle;Max_cycle;Signal;HPM_P1;HPM_P2
2023/12/18 00:00:54;;;;;;;4.70;1.80;;;-0.20;99.90;;;;;;5010885;28;20489;-84
2023/12/18 00:03:19;;;;;;;1.87;1.73;;;-0.10;99.90;;;;;;5009821;28;20190;-84
2023/12/18 00:05:45;;;;;;;11.33;2.40;;;-0.10;99.90;;;;;;5012041;28;20314;-83
2023/12/18 00:08:11;;;;;;;6.67;2.80;;;-0.10;99.90;;;;;;5010745;28;20194;-83
2023/12/18 00:10:37;;;;;;;5.33;2.57;;;0.00;99.90;;;;;;5010664;28;20213;-84
2023/12/18 00:13:02;;;;;;;2.80;1.88;;;0.00;99.90;;;;;;5009668;28;20178;-83
2023/12/18 00:15:28;;;;;;;4.57;2.80;;;0.10;99.90;;;;;;5012692;28;20213;-83
2023/12/18 00:17:53;;;;;;;2.63;2.00;;;0.10;99.90;;;;;;5013810;28;20243;-83
2023/12/18 00:20:19;;;;;;;6.13;3.63;;;0.10;99.90;;;;;;5011549;28;20326;-82
2023/12/18 00:22:44;;;;;;;4.53;4.10;;;0.10;99.90;;;;;;4999994;28;20194;-83
2023/12/18 00:25:10;;;;;;;9.20;4.97;;;0.10;99.90;;;;;;5012656;28;20226;-83
2023/12/18 00:27:36;;;;;;;10.27;4.10;;;0.10;99.90;;;;;;5012018;28;20202;-83
2023/12/18 00:30:01;;;;;;;13.33;7.70;;;0.00;99.90;;;;;;5012714;28;20293;-82
2023/12/18 00:32:27;;;;;;;11.73;6.37;;;0.00;99.90;;;;;;4994989;28;20269;-83
2023/12/18 00:34:52;;;;;;;10.20;5.43;;;0.10;99.90;;;;;;5012222;28;20266;-83
2023/12/18 00:37:18;;;;;;;16.70;4.73;;;0.10;99.90;;;;;;4997583;28;20219;-83
2023/12/18 00:39:43;;;;;;;11.73;5.30;;;0.10;99.90;;;;;;5008353;28;20186;-84
2023/12/18 00:42:09;;;;;;;5.83;2.70;;;0.10;99.90;;;;;;4997264;28;20205;-82
2023/12/18 00:44:34;;;;;;;3.57;2.30;;;0.00;99.90;;;;;;5012553;28;20252;-83
2023/12/18 00:47:02;;;;;;;6.50;3.97;;;-0.10;99.90;;;;;;5012964;28;20178;-85
2023/12/18 00:49:28;;;;;;;6.03;3.25;;;-0.10;99.90;;;;;;5013474;28;20212;-85
2023/12/18 00:51:54;;;;;;;5.60;3.00;;;0.00;99.90;;;;;;5015961;28;20190;-85
2023/12/18 00:54:19;;;;;;;6.30;3.00;;;0.00;99.90;;;;;;5001268;28;20450;-84
2023/12/18 00:56:45;;;;;;;5.90;2.90;;;0.00;99.90;;;;;;5014536;28;20212;-85
2023/12/18 00:59:10;;;;;;;5.67;4.33;;;0.10;99.90;;;;;;5010174;28;20226;-84
2023/12/18 01:01:36;;;;;;;7.50;3.60;;;0.10;99.90;;;;;;5002576;28;20292;-85
2023/12/18 01:04:02;;;;;;;4.23;2.93;;;0.10;99.90;;;;;;5000438;28;20218;-84
2023/12/18 01:06:27;;;;;;;6.33;3.93;;;0.00;99.90;;;;;;5013684;28;21321;-84
2023/12/18 01:08:53;;;;;;;14.13;5.43;;;-0.20;99.90;;;;;;5012605;28;20621;-83
2023/12/18 01:11:18;;;;;;;5.50;4.10;;;-0.20;99.90;;;;;;5004198;28;20199;-85
2023/12/18 01:13:44;;;;;;;6.27;4.73;;;-0.10;99.90;;;;;;5009765;28;20254;-85
2023/12/18 01:16:09;;;;;;;11.63;4.57;;;-0.10;99.90;;;;;;5012762;28;20645;-86
2023/12/18 01:18:35;;;;;;;8.43;4.80;;;-0.10;99.90;;;;;;5014513;28;20193;-85
2023/12/18 01:21:05;;;;;;;5.00;4.27;;;-0.10;99.90;;;;;;5014415;28;20239;-85
2023/12/18 01:23:46;;;;;;;6.75;3.97;;;-0.10;99.90;;;;;;5013100;28;20227;-85
2023/12/18 01:26:11;;;;;;;11.40;4.70;;;-0.20;99.90;;;;;;5017456;28;20208;-85
2023/12/18 01:28:37;;;;;;;11.97;4.97;;;-0.20;99.90;;;;;;4994450;28;20190;-86
2023/12/18 01:31:02;;;;;;;7.67;4.63;;;-0.30;99.90;;;;;;5016605;28;20565;-85
2023/12/18 01:33:28;;;;;;;18.00;3.87;;;-0.30;99.90;;;;;;4999317;28;20782;-87
2023/12/18 01:35:54;;;;;;;9.03;3.57;;;-0.30;99.90;;;;;;5015545;28;20188;-84
2023/12/18 01:38:19;;;;;;;5.30;3.53;;;-0.20;99.90;;;;;;4995688;28;20182;-85
2023/12/18 01:40:45;;;;;;;8.90;4.33;;;-0.10;99.90;;;;;;4998983;28;20190;-86
2023/12/18 01:43:26;;;;;;;8.70;4.57;;;-0.10;99.90;;;;;;5014265;28;20206;-86
2023/12/18 01:46:00;;;;;;;4.47;4.05;;;-0.10;99.90;;;;;;5012586;28;20270;-85
2023/12/18 01:48:26;;;;;;;8.35;5.72;;;-0.20;99.90;;;;;;4995679;28;20185;-86
2023/12/18 01:50:57;;;;;;;6.78;4.13;;;-0.20;99.90;;;;;;5014382;28;20190;-85
2023/12/18 01:53:31;;;;;;;10.40;5.18;;;-0.10;99.90;;;;;;5010014;28;20182;-85
2023/12/18 01:55:57;;;;;;;26.85;7.05;;;-0.10;99.90;;;;;;5015569;28;20167;-86
2023/12/18 01:58:23;;;;;;;36.65;8.10;;;-0.10;99.90;;;;;;5000617;28;20652;-85
2023/12/18 02:00:49;;;;;;;24.92;6.20;;;-0.10;99.90;;;;;;4995226;28;20231;-86
2023/12/18 02:03:18;;;;;;;19.23;5.03;;;-0.10;99.90;;;;;;5011818;28;20185;-86
2023/12/18 02:05:44;;;;;;;11.52;5.40;;;-0.10;99.90;;;;;;5013659;28;20178;-85
2023/12/18 02:08:10;;;;;;;16.95;5.75;;;-0.20;99.90;;;;;;4997481;28;20764;-85
2023/12/18 02:10:37;;;;;;;10.30;4.30;;;-0.40;99.90;;;;;;5009245;28;20581;-85
2023/12/18 02:13:03;;;;;;;8.73;4.65;;;-0.60;99.90;;;;;;5009358;28;20786;-87
2023/12/18 02:15:28;;;;;;;5.20;3.53;;;-0.60;99.90;;;;;;5002385;28;20237;-86
2023/12/18 02:17:54;;;;;;;4.00;3.23;;;-0.60;99.90;;;;;;4994596;28;20209;-86
2023/12/18 02:20:19;;;;;;;5.20;3.53;;;-0.40;99.90;;;;;;5011019;28;20177;-86
2023/12/18 02:22:48;;;;;;;8.77;4.70;;;-0.10;99.90;;;;;;5011875;28;20182;-86
2023/12/18 02:25:16;;;;;;;6.28;4.78;;;0.00;99.90;;;;;;4997964;28;20769;-87
2023/12/18 02:27:44;;;;;;;9.55;6.28;;;0.10;99.90;;;;;;5012617;28;20234;-86
2023/12/18 02:30:14;;;;;;;7.75;4.93;;;0.10;99.90;;;;;;5014445;28;20256;-87
2023/12/18 02:32:40;;;;;;;4.28;3.88;;;0.20;99.90;;;;;;5011642;28;20166;-86
2023/12/18 02:35:06;;;;;;;6.43;4.50;;;0.30;99.90;;;;;;4998131;28;20716;-86
2023/12/18 02:37:32;;;;;;;7.90;5.03;;;0.40;99.90;;;;;;5015050;28;20189;-86
2023/12/18 02:39:57;;;;;;;8.83;5.60;;;0.40;99.90;;;;;;5012751;28;20182;-86
2023/12/18 02:42:23;;;;;;;10.43;7.13;;;0.50;99.90;;;;;;5011275;28;20210;-86
2023/12/18 02:44:48;;;;;;;6.80;4.60;;;0.60;99.90;;;;;;4993393;28;20246;-87
2023/12/18 02:47:14;;;;;;;11.97;4.43;;;0.60;99.90;;;;;;4995387;28;20182;-86
2023/12/18 02:49:39;;;;;;;13.37;5.80;;;0.40;99.90;;;;;;5009075;28;20243;-86
2023/12/18 02:52:05;;;;;;;8.53;5.03;;;0.30;99.90;;;;;;5012864;28;20538;-85
2023/12/18 02:54:31;;;;;;;11.10;6.03;;;0.40;99.90;;;;;;5013391;28;20248;-86
2023/12/18 02:56:56;;;;;;;13.83;5.80;;;0.40;99.90;;;;;;5000542;28;20183;-85
2023/12/18 02:59:22;;;;;;;5.07;3.97;;;0.30;99.90;;;;;;5011234;28;20209;-87
2023/12/18 03:01:47;;;;;;;8.80;4.67;;;0.30;99.90;;;;;;5010774;28;20187;-87
2023/12/18 03:04:13;;;;;;;10.43;4.70;;;0.10;99.90;;;;;;5010861;28;20906;-85
2023/12/18 03:06:38;;;;;;;14.53;6.40;;;0.10;99.90;;;;;;5012618;28;20190;-86
2023/12/18 03:09:04;;;;;;;19.40;5.80;;;0.00;99.90;;;;;;5011487;28;20629;-86
2023/12/18 03:11:29;;;;;;;8.50;5.37;;;0.00;99.90;;;;;;4997581;28;20298;-86
2023/12/18 03:13:54;;;;;;;12.33;7.53;;;0.00;99.90;;;;;;5009582;28;20221;-86
2023/12/18 03:16:20;;;;;;;8.20;5.40;;;0.10;99.90;;;;;;5012989;28;20178;-87
2023/12/18 03:18:46;;;;;;;4.67;4.07;;;0.10;99.90;;;;;;5012149;28;20269;-88
2023/12/18 03:21:11;;;;;;;11.93;5.40;;;0.20;99.90;;;;;;5014351;28;20205;-87
2023/12/18 03:23:37;;;;;;;12.13;5.90;;;0.10;99.90;;;;;;4989961;28;20198;-86
2023/12/18 03:26:03;;;;;;;8.00;5.70;;;0.10;99.90;;;;;;4996547;28;20186;-86
2023/12/18 03:28:28;;;;;;;6.80;6.10;;;0.20;99.90;;;;;;5012715;28;20426;-86
2023/12/18 03:30:54;;;;;;;10.90;6.07;;;0.30;99.90;;;;;;5012211;28;20567;-86
2023/12/18 03:33:19;;;;;;;10.17;4.53;;;0.30;99.90;;;;;;5011604;28;20181;-86
2023/12/18 03:35:45;;;;;;;7.83;4.17;;;0.40;99.90;;;;;;5000186;28;20887;-85
2023/12/18 03:38:12;;;;;;;11.17;6.53;;;0.40;99.90;;;;;;5071695;28;20179;-86
2023/12/18 03:40:37;;;;;;;7.78;6.03;;;0.50;99.90;;;;;;5011418;28;20221;-85
2023/12/18 03:43:04;;;;;;;9.90;4.63;;;0.50;99.90;;;;;;5014382;28;20191;-86
2023/12/18 03:45:30;;;;;;;15.30;6.10;;;0.50;99.90;;;;;;5024921;28;20298;-85
2023/12/18 03:47:55;;;;;;;11.20;5.43;;;0.30;99.90;;;;;;5009984;28;20723;-85
2023/12/18 03:50:21;;;;;;;8.67;5.20;;;0.30;99.90;;;;;;5011398;28;21752;-87
2023/12/18 03:52:46;;;;;;;8.90;4.60;;;0.30;99.90;;;;;;5012155;28;20566;-87
2023/12/18 03:55:12;;;;;;;7.90;4.90;;;0.30;99.90;;;;;;5004338;28;20622;-86
2023/12/18 03:57:38;;;;;;;8.93;4.63;;;0.40;99.90;;;;;;5010310;28;20199;-88
2023/12/18 04:00:04;;;;;;;7.23;4.70;;;0.40;99.90;;;;;;5010750;28;20591;-88
2023/12/18 04:02:30;;;;;;;7.05;4.88;;;0.20;99.90;;;;;;4992553;28;20163;-89
2023/12/18 04:04:55;;;;;;;7.10;4.50;;;0.10;99.90;;;;;;4999281;28;20210;-89
2023/12/18 04:07:21;;;;;;;7.03;3.63;;;0.00;99.90;;;;;;4995666;28;20190;-88
2023/12/18 04:09:46;;;;;;;5.07;3.50;;;-0.10;99.90;;;;;;5010143;28;20263;-88
2023/12/18 04:12:12;;;;;;;6.47;4.60;;;-0.20;99.90;;;;;;4989732;28;20171;-88
2023/12/18 04:14:37;;;;;;;10.47;6.37;;;-0.40;99.90;;;;;;5008322;28;20222;-89
2023/12/18 04:17:03;;;;;;;6.10;4.00;;;-0.50;99.90;;;;;;4997052;28;20196;-89
2023/12/18 04:19:28;;;;;;;5.47;5.03;;;-0.50;99.90;;;;;;5008910;28;20178;-88
2023/12/18 04:21:55;;;;;;;8.13;6.57;;;-0.60;99.90;;;;;;5006198;28;20193;-88
2023/12/18 04:24:20;;;;;;;4.15;3.70;;;-0.60;99.90;;;;;;4992357;28;20812;-87
2023/12/18 04:26:46;;;;;;;8.13;5.60;;;-0.70;99.90;;;;;;5012317;28;20236;-87
2023/12/18 04:29:12;;;;;;;12.23;6.43;;;-0.70;99.90;;;;;;5011885;28;20183;-87
2023/12/18 04:31:37;;;;;;;6.17;5.10;;;-0.70;99.90;;;;;;5015096;28;20481;-88
2023/12/18 04:34:03;;;;;;;6.23;3.07;;;-0.80;99.90;;;;;;4995424;28;20591;-88
2023/12/18 04:36:28;;;;;;;13.40;5.30;;;-1.00;99.90;;;;;;4997243;28;20167;-89
2023/12/18 04:38:54;;;;;;;5.57;5.07;;;-1.00;99.90;;;;;;4995243;28;20174;-88
2023/12/18 04:41:20;;;;;;;7.70;4.33;;;-1.00;99.90;;;;;;5009235;28;20648;-89
2023/12/18 04:43:46;;;;;;;7.22;4.28;;;-1.00;99.90;;;;;;5012811;28;20210;-89
2023/12/18 04:46:12;;;;;;;8.02;4.35;;;-1.00;99.90;;;;;;5004786;28;20191;-89
2023/12/18 04:48:38;;;;;;;8.90;5.63;;;-0.90;99.90;;;;;;5003049;28;20711;-89
2023/12/18 04:51:04;;;;;;;7.50;4.73;;;-0.80;99.90;;;;;;4995506;28;20216;-89
2023/12/18 04:53:32;;;;;;;15.90;6.47;;;-0.80;99.90;;;;;;5017503;28;20199;-87
2023/12/18 04:55:57;;;;;;;4.47;4.05;;;-0.70;99.90;;;;;;4999395;28;21708;-89
2023/12/18 04:58:23;;;;;;;8.50;4.77;;;-0.10;99.90;;;;;;4999854;28;20206;-88
2023/12/18 05:00:48;;;;;;;9.53;4.77;;;-0.80;99.90;;;;;;5004065;28;20178;-89
2023/12/18 05:03:14;;;;;;;6.30;4.57;;;-0.90;99.90;;;;;;4983405;28;20764;-89
2023/12/18 05:05:40;;;;;;;15.90;7.10;;;-0.40;99.90;;;;;;4996459;28;20246;-90
2023/12/18 05:08:06;;;;;;;8.27;5.40;;;-1.00;99.90;;;;;;4998825;28;20656;-89
2023/12/18 05:10:32;;;;;;;7.17;5.07;;;-0.90;99.90;;;;;;4999449;28;20205;-90
2023/12/18 05:12:59;;;;;;;9.27;6.22;;;-0.40;99.90;;;;;;5001963;28;20441;-90
2023/12/18 05:15:24;;;;;;;8.70;4.30;;;-0.20;99.90;;;;;;5005178;28;20272;-90
2023/12/18 05:17:50;;;;;;;7.50;5.60;;;-0.70;99.90;;;;;;5012494;28;20175;-91
2023/12/18 05:20:16;;;;;;;5.33;3.43;;;-0.70;99.90;;;;;;4998717;28;20186;-91
2023/12/18 05:22:41;;;;;;;11.83;5.97;;;-0.70;99.90;;;;;;5013289;28;20194;-90
2023/12/18 05:25:09;;;;;;;6.53;4.70;;;-0.30;99.90;;;;;;5039943;28;20214;-88
2023/12/18 05:27:35;;;;;;;8.20;5.60;;;-0.90;99.90;;;;;;5000366;28;20178;-87
2023/12/18 05:30:01;;;;;;;10.37;5.23;;;-1.10;99.90;;;;;;5018239;28;20220;-89
2023/12/18 05:32:27;;;;;;;5.40;4.50;;;-1.00;99.90;;;;;;5000103;28;20513;-89
2023/12/18 05:34:53;;;;;;;4.20;3.80;;;-1.00;99.90;;;;;;4995067;28;20198;-89
2023/12/18 05:37:18;;;;;;;5.07;4.50;;;-1.00;99.90;;;;;;4991833;28;20467;-86
2023/12/18 05:39:44;;;;;;;4.40;3.53;;;-1.00;99.90;;;;;;4999661;28;20193;-85
2023/12/18 05:42:10;;;;;;;10.40;5.57;;;-1.20;99.90;;;;;;5008833;28;20182;-87
2023/12/18 05:44:35;;;;;;;5.70;4.67;;;-1.30;99.90;;;;;;4998691;28;20344;-85
2023/12/18 05:47:01;;;;;;;6.00;3.70;;;-1.40;99.90;;;;;;5011384;28;20194;-86
2023/12/18 05:49:28;;;;;;;12.53;4.60;;;-1.50;99.90;;;;;;5006048;28;20190;-86
2023/12/18 05:51:54;;;;;;;4.35;3.38;;;-1.50;99.90;;;;;;5012203;28;20270;-86
2023/12/18 05:54:20;;;;;;;14.23;5.93;;;-1.40;99.90;;;;;;5003769;28;20227;-85
2023/12/18 05:56:45;;;;;;;6.40;4.30;;;-1.20;99.90;;;;;;5022298;28;20433;-85
2023/12/18 05:59:11;;;;;;;8.97;5.17;;;-1.20;99.90;;;;;;5018446;28;20237;-86
2023/12/18 06:01:36;;;;;;;6.40;2.93;;;-1.10;99.90;;;;;;5000344;28;20195;-85
2023/12/18 06:04:02;;;;;;;9.13;3.50;;;-1.00;99.90;;;;;;5012720;28;20214;-86
2023/12/18 06:06:28;;;;;;;8.93;4.50;;;-1.00;99.90;;;;;;5010642;28;20193;-86
2023/12/18 06:08:53;;;;;;;7.33;4.30;;;-1.10;99.90;;;;;;5013529;28;20575;-86
2023/12/18 06:11:19;;;;;;;4.57;2.57;;;-1.00;99.90;;;;;;5008009;28;20199;-86
2023/12/18 06:13:44;;;;;;;5.57;4.77;;;-1.00;99.90;;;;;;4998189;28;20218;-86
2023/12/18 06:16:10;;;;;;;4.23;3.90;;;-0.90;99.90;;;;;;5009144;28;20293;-86
2023/12/18 06:18:36;;;;;;;15.97;5.87;;;-0.90;99.90;;;;;;5011338;28;20193;-86
2023/12/18 06:21:03;;;;;;;17.38;3.38;;;-0.80;99.90;;;;;;5002705;28;20190;-86
2023/12/18 06:23:30;;;;;;;13.30;5.18;;;-0.70;99.90;;;;;;5013674;28;20218;-86
2023/12/18 06:25:56;;;;;;;6.43;3.40;;;-0.70;99.90;;;;;;5014936;28;20201;-86
2023/12/18 06:28:21;;;;;;;8.10;4.60;;;-0.80;99.90;;;;;;5009304;28;20178;-86
2023/12/18 06:30:47;;;;;;;4.67;4.20;;;-0.90;99.90;;;;;;4995075;28;20195;-86
2023/12/18 06:33:14;;;;;;;8.23;4.80;;;-0.80;99.90;;;;;;5002418;28;20162;-86
2023/12/18 06:35:40;;;;;;;6.68;3.95;;;-0.80;99.90;;;;;;5009037;28;20249;-86
2023/12/18 06:38:06;;;;;;;4.47;3.42;;;-0.80;99.90;;;;;;5010510;28;20186;-86
2023/12/18 06:40:31;;;;;;;5.70;3.90;;;-0.70;99.90;;;;;;5022926;28;20183;-86
2023/12/18 06:42:57;;;;;;;6.10;3.43;;;-0.60;99.90;;;;;;5011705;28;20706;-86
2023/12/18 06:45:22;;;;;;;4.17;3.50;;;-0.60;99.90;;;;;;5009235;28;20250;-86
2023/12/18 06:47:48;;;;;;;10.00;3.30;;;-0.80;99.90;;;;;;4995149;28;20179;-86
2023/12/18 06:50:14;;;;;;;10.23;5.20;;;-1.10;99.90;;;;;;5002328;28;20190;-86
2023/12/18 06:52:40;;;;;;;4.77;3.87;;;-1.20;99.90;;;;;;5001450;28;20219;-86
2023/12/18 06:55:06;;;;;;;4.60;3.47;;;-1.30;99.90;;;;;;5009121;28;20210;-86
2023/12/18 06:57:32;;;;;;;11.95;4.10;;;-1.30;99.90;;;;;;5014942;28;20198;-86
2023/12/18 06:59:58;;;;;;;4.00;2.80;;;-1.30;99.90;;;;;;4993758;28;20177;-86
2023/12/18 07:02:23;;;;;;;10.27;3.77;;;-1.20;99.90;;;;;;5014651;28;20437;-86
2023/12/18 07:04:49;;;;;;;7.73;3.60;;;-1.20;99.90;;;;;;4989930;28;20206;-86
2023/12/18 07:07:15;;;;;;;12.93;4.87;;;-1.10;99.90;;;;;;4996340;28;20182;-86
2023/12/18 07:09:40;;;;;;;7.57;3.10;;;-1.10;99.90;;;;;;5011225;28;20179;-86
2023/12/18 07:12:06;;;;;;;3.93;3.60;;;-1.00;99.90;;;;;;5004051;28;20183;-85
2023/12/18 07:14:32;;;;;;;10.70;3.15;;;-1.10;99.90;;;;;;4981032;28;20301;-86
2023/12/18 07:16:58;;;;;;;3.97;2.40;;;-1.10;99.90;;;;;;5008964;28;20202;-85
2023/12/18 07:19:23;;;;;;;5.07;4.10;;;-1.20;99.90;;;;;;4996485;28;20200;-86
2023/12/18 07:21:49;;;;;;;15.57;4.20;;;-1.10;99.90;;;;;;5002202;28;20556;-85
2023/12/18 07:24:14;;;;;;;5.33;3.10;;;-1.10;99.90;;;;;;4999400;28;20198;-86
2023/12/18 07:26:40;;;;;;;4.03;2.63;;;-1.20;99.90;;;;;;5011890;28;20178;-86
2023/12/18 07:29:05;;;;;;;5.20;3.47;;;-1.40;99.90;;;;;;5006633;28;20182;-86
2023/12/18 07:31:31;;;;;;;2.23;1.87;;;-1.60;99.90;;;;;;5010520;28;20206;-86
2023/12/18 07:33:56;;;;;;;8.17;5.20;;;-1.60;99.90;;;;;;4995188;28;20642;-86
2023/12/18 07:36:22;;;;;;;6.50;3.50;;;-1.60;99.90;;;;;;5010563;28;20178;-85
2023/12/18 07:38:48;;;;;;;11.73;4.60;;;-1.50;99.90;;;;;;5009244;28;20185;-86
2023/12/18 07:41:14;;;;;;;8.23;4.53;;;-1.40;99.90;;;;;;5006349;28;20214;-86
2023/12/18 07:43:40;;;;;;;9.33;4.80;;;;;;;;;;4993708;28;20198;-86
2023/12/18 07:46:15;;;;;;;3.73;3.40;;;-1.40;99.90;;;;;;4992018;28;20186;-86
2023/12/18 07:48:40;;;;;;;4.50;2.95;;;-1.30;99.90;;;;;;5006623;28;20488;-86
2023/12/18 07:51:06;;;;;;;6.13;4.40;;;-1.20;99.90;;;;;;5004374;28;20235;-86
2023/12/18 07:53:31;;;;;;;4.43;2.70;;;-1.20;99.90;;;;;;4988738;28;20720;-86
2023/12/18 07:55:57;;;;;;;3.00;2.20;;;-1.20;99.90;;;;;;5001181;28;20183;-84
2023/12/18 07:58:22;;;;;;;3.53;1.70;;;-1.40;99.90;;;;;;4991053;28;20522;-86
2023/12/18 08:00:48;;;;;;;6.67;3.60;;;-1.50;99.90;;;;;;5003207;28;20198;-85
2023/12/18 08:03:13;;;;;;;3.63;3.03;;;-1.50;99.90;;;;;;5009885;28;20235;-84
2023/12/18 08:05:39;;;;;;;12.50;7.20;;;-1.50;99.90;;;;;;5008121;28;20697;-85
2023/12/18 08:08:05;;;;;;;4.37;3.00;;;-1.40;99.90;;;;;;4999497;28;20183;-85
2023/12/18 08:10:30;;;;;;;11.40;5.03;;;-1.20;99.90;;;;;;5011759;28;20224;-84
2023/12/18 08:12:56;;;;;;;6.37;3.53;;;-1.00;99.90;;;;;;5010321;28;20442;-84
2023/12/18 08:15:21;;;;;;;8.90;4.10;;;-0.80;99.90;;;;;;5001351;28;20253;-85
2023/12/18 08:17:47;;;;;;;4.60;3.00;;;-0.60;99.90;;;;;;5011142;28;20175;-85
2023/12/18 08:20:14;;;;;;;7.33;4.30;;;-0.60;99.90;;;;;;4998221;28;20185;-84
2023/12/18 08:22:40;;;;;;;7.10;5.25;;;-0.60;99.90;;;;;;4998133;28;20205;-85
2023/12/18 08:25:06;;;;;;;6.90;4.70;;;-0.40;99.90;;;;;;4985531;28;20235;-85
2023/12/18 08:27:33;;;;;;;19.52;5.75;;;-0.10;99.90;;;;;;5021306;28;20675;-85
2023/12/18 08:29:59;;;;;;;8.30;6.20;;;0.10;99.90;;;;;;4998702;28;20195;-85
2023/12/18 08:32:25;;;;;;;17.07;7.07;;;0.30;99.90;;;;;;4991046;28;20683;-85
2023/12/18 08:34:50;;;;;;;12.20;6.77;;;0.40;99.90;;;;;;5008849;28;20194;-85
2023/12/18 08:37:16;;;;;;;8.33;4.57;;;0.50;99.90;;;;;;5016924;28;20179;-85
2023/12/18 08:39:42;;;;;;;17.53;7.80;;;0.70;99.90;;;;;;5016017;28;20167;-84
2023/12/18 08:42:07;;;;;;;18.63;6.20;;;0.80;99.90;;;;;;5015092;28;20243;-84
2023/12/18 08:44:33;;;;;;;46.73;9.13;;;1.20;99.90;;;;;;5015676;28;20198;-84
2023/12/18 08:46:58;;;;;;;24.50;9.27;;;1.90;99.90;;;;;;5028572;28;20188;-84
2023/12/18 08:49:24;;;;;;;14.70;6.67;;;2.60;99.90;;;;;;5004928;28;20236;-87
2023/12/18 08:51:49;;;;;;;15.33;8.30;;;2.40;99.90;;;;;;5015282;28;20202;-87
2023/12/18 08:54:15;;;;;;;15.03;6.07;;;2.30;99.90;;;;;;4993080;28;20262;-84
2023/12/18 08:56:40;;;;;;;13.37;6.53;;;2.20;99.90;;;;;;5012151;28;20610;-85
2023/12/18 08:59:06;;;;;;;15.23;6.27;;;2.10;99.90;;;;;;4988515;28;20695;-85
2023/12/18 09:01:37;;;;;;;20.97;7.13;;;2.20;99.90;;;;;;5015216;28;20213;-85
2023/12/18 09:04:03;;;;;;;25.63;9.35;;;2.20;99.90;;;;;;4994905;28;20215;-85
2023/12/18 09:06:29;;;;;;;11.45;5.03;;;1.90;99.90;;;;;;5008355;28;20179;-88
2023/12/18 09:08:55;;;;;;;10.67;6.47;;;1.30;99.90;;;;;;5008868;28;20989;-85
2023/12/18 09:11:20;;;;;;;7.87;6.57;;;0.90;99.90;;;;;;5015252;28;20207;-85
2023/12/18 09:13:46;;;;;;;9.93;6.17;;;0.90;99.90;;;;;;4985347;28;20223;-85
2023/12/18 09:16:12;;;;;;;9.37;5.10;;;0.80;99.90;;;;;;5045708;28;20182;-85
2023/12/18 09:18:37;;;;;;;9.00;5.38;;;0.80;99.90;;;;;;5015718;28;20417;-85
2023/12/18 09:21:03;;;;;;;12.43;6.50;;;0.80;99.90;;;;;;5006151;28;20213;-85
2023/12/18 09:23:29;;;;;;;18.50;6.07;;;0.90;99.90;;;;;;4993039;28;20202;-85
2023/12/18 09:25:55;;;;;;;16.80;6.23;;;0.90;99.90;;;;;;5003826;28;20430;-85
2023/12/18 09:28:20;;;;;;;16.77;5.45;;;1.00;99.90;;;;;;4998191;28;20186;-85
2023/12/18 09:30:46;;;;;;;10.57;5.10;;;1.00;99.90;;;;;;5016209;28;20198;-85
2023/12/18 09:33:12;;;;;;;8.80;6.43;;;1.50;99.90;;;;;;5015419;28;20208;-85
2023/12/18 09:35:37;;;;;;;15.50;7.70;;;1.60;99.90;;;;;;5011123;28;20183;-85
2023/12/18 09:38:04;;;;;;;13.37;7.97;;;2.00;99.90;;;;;;5012782;28;20202;-85
2023/12/18 09:40:29;;;;;;;14.25;5.82;;;2.10;99.90;;;;;;5013260;28;20178;-86
2023/12/18 09:42:55;;;;;;;9.73;5.97;;;2.00;99.90;;;;;;5008648;28;20187;-85
2023/12/18 09:45:23;;;;;;;7.40;5.27;;;2.20;99.90;;;;;;5001920;28;20226;-85
2023/12/18 09:47:49;;;;;;;10.23;7.40;;;2.20;99.90;;;;;;5012171;28;20688;-85
2023/12/18 09:50:16;;;;;;;26.00;8.43;;;2.70;99.90;;;;;;5013832;28;20195;-85
2023/12/18 09:52:48;;;;;;;23.90;11.77;;;4.60;99.90;;;;;;5012700;28;20209;-85
2023/12/18 09:55:14;;;;;;;20.67;11.05;;;3.00;99.90;;;;;;5009615;28;20623;-86
2023/12/18 09:57:41;;;;;;;30.52;10.68;;;3.00;99.90;;;;;;5009805;28;20258;-87
2023/12/18 10:00:09;;;;;;;15.18;7.38;;;2.90;99.90;;;;;;5008314;28;20194;-87
2023/12/18 10:02:37;;;;;;;9.90;5.70;;;2.80;99.90;;;;;;5007222;28;20178;-87
2023/12/18 10:05:02;;;;;;;7.32;5.15;;;2.40;99.90;;;;;;5008096;28;20198;-87
2023/12/18 10:07:28;;;;;;;8.00;5.10;;;2.10;99.90;;;;;;5005178;28;20208;-86
2023/12/18 10:09:53;;;;;;;10.43;5.30;;;1.80;99.90;;;;;;5004765;28;20202;-86
2023/12/18 10:12:19;;;;;;;15.03;6.80;;;1.60;99.90;;;;;;5006467;28;20191;-86
2023/12/18 10:14:45;;;;;;;17.90;6.20;;;1.30;99.90;;;;;;5005520;28;20778;-87
2023/12/18 10:17:11;;;;;;;8.30;4.87;;;1.30;99.90;;;;;;4997857;28;20433;-86
2023/12/18 10:19:42;;;;;;;9.90;6.78;;;1.40;99.90;;;;;;5006623;28;20186;-86
2023/12/18 10:22:09;;;;;;;14.00;5.53;;;1.60;99.90;;;;;;5006409;28;20288;-86
2023/12/18 10:24:40;;;;;;;13.35;8.93;;;2.00;99.90;;;;;;5003364;28;20206;-86
2023/12/18 10:27:06;;;;;;;14.52;5.20;;;2.50;99.90;;;;;;5003786;28;20321;-87
2023/12/18 10:29:31;;;;;;;11.10;6.13;;;2.20;99.90;;;;;;5004391;28;20327;-86
2023/12/18 10:31:58;;;;;;;16.07;6.67;;;2.20;99.90;;;;;;5006068;28;20203;-86
2023/12/18 10:34:24;;;;;;;13.45;8.43;;;2.30;99.90;;;;;;5005478;28;20703;-87
2023/12/18 10:36:54;;;;;;;15.52;7.28;;;2.20;99.90;;;;;;5007716;28;20637;-85
2023/12/18 10:39:21;;;;;;;15.10;8.30;;;2.30;99.90;;;;;;5007176;28;20261;-86
2023/12/18 10:41:53;;;;;;;11.38;8.45;;;2.00;99.90;;;;;;5005929;28;20183;-87
2023/12/18 10:44:21;;;;;;;13.75;6.60;;;1.90;99.90;;;;;;5007251;28;20299;-86
2023/12/18 10:46:49;;;;;;;18.13;7.93;;;2.10;99.90;;;;;;5006222;28;20579;-87
2023/12/18 10:49:16;;;;;;;13.10;6.88;;;2.50;99.90;;;;;;5007436;28;20190;-86
2023/12/18 10:51:44;;;;;;;14.48;8.75;;;2.80;99.90;;;;;;5008642;28;20210;-86
2023/12/18 10:54:11;;;;;;;17.60;8.23;;;3.00;99.90;;;;;;5006651;28;20279;-87
2023/12/18 10:56:38;;;;;;;16.45;7.28;;;3.00;99.90;;;;;;5006319;28;20233;-86
2023/12/18 10:59:06;;;;;;;17.88;8.02;;;3.00;99.90;;;;;;5005829;28;20239;-85
2023/12/18 11:01:34;;;;;;;11.32;6.55;;;2.90;99.90;;;;;;5006503;28;20183;-85
2023/12/18 11:04:01;;;;;;;15.05;7.20;;;2.80;99.90;;;;;;4989045;28;20784;-85
2023/12/18 11:06:28;;;;;;;10.05;5.72;;;2.70;99.90;;;;;;4985713;28;20186;-87
2023/12/18 11:08:54;;;;;;;10.77;5.95;;;2.60;99.90;;;;;;5008080;28;20193;-86
2023/12/18 11:11:21;;;;;;;19.23;8.03;;;2.70;99.90;;;;;;4987270;28;20210;-86
2023/12/18 11:14:12;;;;;;;12.57;6.45;;;2.70;99.90;;;;;;5005039;28;20219;-86
2023/12/18 11:16:52;;;;;;;9.05;6.80;;;2.90;99.90;;;;;;4989083;28;20186;-87
2023/12/18 11:19:33;;;;;;;9.75;5.60;;;3.10;99.90;;;;;;5006097;28;20190;-86
2023/12/18 11:22:04;;;;;;;8.88;6.15;;;3.40;99.90;;;;;;5005921;28;20186;-87
2023/12/18 11:24:35;;;;;;;10.30;5.32;;;3.50;99.90;;;;;;5006895;28;20212;-86
2023/12/18 11:27:02;;;;;;;13.20;7.40;;;3.50;99.90;;;;;;5004998;28;20232;-87
2023/12/18 11:29:48;;;;;;;10.10;6.60;;;3.50;99.90;;;;;;4998557;28;20259;-88
2023/12/18 11:32:41;;;;;;;12.50;7.10;;;3.40;99.90;;;;;;5004974;28;20260;-86
2023/12/18 11:35:10;;;;;;;14.05;7.53;;;3.40;99.90;;;;;;5005399;28;20312;-89
2023/12/18 11:37:47;;;;;;;6.60;5.07;;;3.50;99.90;;;;;;5006501;28;20194;-88
2023/12/18 11:40:35;;;;;;;9.77;6.05;;;3.70;99.90;;;;;;5006366;28;20281;-88
2023/12/18 11:43:01;;;;;;;11.10;6.32;;;3.70;99.90;;;;;;5006938;28;20653;-87
2023/12/18 11:45:27;;;;;;;9.70;6.35;;;3.60;99.90;;;;;;5003065;28;20309;-87
2023/12/18 11:48:17;;;;;;;11.80;6.50;;;3.70;99.90;;;;;;5002954;28;20269;-85
2023/12/18 11:50:42;;;;;;;12.27;8.05;;;3.80;99.90;;;;;;5002949;28;21070;-86
2023/12/18 11:53:38;;;;;;;11.33;5.23;;;3.80;99.90;;;;;;5009344;28;20238;-86
2023/12/18 11:56:11;;;;;;;10.55;6.15;;;3.80;99.90;;;;;;5008289;28;20194;-86
2023/12/18 11:58:43;;;;;;;10.20;5.43;;;3.90;99.90;;;;;;5009246;28;20187;-88
2023/12/18 12:01:09;;;;;;;8.95;5.32;;;3.90;99.90;;;;;;5008218;28;20190;-87
2023/12/18 12:03:36;;;;;;;12.87;7.10;;;4.20;99.90;;;;;;5011645;28;20213;-85
2023/12/18 12:06:06;;;;;;;13.70;7.72;;;4.50;99.90;;;;;;5007502;28;20201;-87
2023/12/18 12:08:31;;;;;;;15.07;8.25;;;4.80;99.90;;;;;;5009189;28;20209;-85
2023/12/18 12:10:57;;;;;;;18.60;7.07;;;4.80;99.90;;;;;;5009048;28;20233;-86
2023/12/18 12:13:26;;;;;;;12.27;6.93;;;4.70;99.90;;;;;;5010082;28;20509;-86
2023/12/18 12:16:00;;;;;;;8.30;6.13;;;4.80;99.90;;;;;;5006670;28;20502;-86
2023/12/18 12:18:26;;;;;;;11.45;5.55;;;4.70;99.90;;;;;;5008785;28;20198;-87
2023/12/18 12:20:52;;;;;;;10.05;7.22;;;4.70;99.90;;;;;;5007984;28;20250;-85
2023/12/18 12:23:18;;;;;;;11.60;7.23;;;4.70;99.90;;;;;;5005369;28;20277;-86
2023/12/18 12:25:46;;;;;;;7.87;5.93;;;4.80;99.90;;;;;;4994122;28;20445;-86
2023/12/18 12:28:11;;;;;;;12.27;6.10;;;4.90;99.90;;;;;;4986010;28;20198;-86
2023/12/18 12:30:37;;;;;;;11.70;6.20;;;4.90;99.90;;;;;;5005284;28;20210;-85
2023/12/18 12:33:03;;;;;;;9.67;5.90;;;5.00;99.90;;;;;;5007823;28;20236;-86
2023/12/18 12:35:32;;;;;;;10.10;7.35;;;5.20;99.90;;;;;;5003946;28;20477;-85
2023/12/18 12:37:58;;;;;;;11.18;6.35;;;5.30;99.90;;;;;;5006773;28;21296;-86
2023/12/18 12:40:23;;;;;;;11.55;5.43;;;5.50;99.90;;;;;;4986697;28;20194;-85
2023/12/18 12:42:49;;;;;;;7.70;5.37;;;5.70;99.90;;;;;;5017721;28;20262;-88
2023/12/18 12:45:14;;;;;;;7.60;6.10;;;5.90;99.90;;;;;;4992877;28;20344;-87